Time;durP1;ratioP1;P1;durP2;ratioP2;P2;SDS_P1;SDS_P2;PMS_P1;PMS_P2;Temp;Humidity;BMP_temperature;BMP_pressure;BME280_temperature;BME280_humidity;BME280_pressure;Samples;Min_cycle;Max_cycle;Signal;HPM_P1;HPM_P2
2022/03/23 00:01:28;;;;;;;183.30;110.95;;;179.90;2099.20;;;;;;4884448;29;20053;-77
2022/03/23 00:03:54;;;;;;;177.65;108.72;;;179.80;2099.20;;;;;;4884443;29;20375;-79
2022/03/23 00:06:20;;;;;;;192.15;108.25;;;179.70;2099.20;;;;;;4901529;29;20115;-79
2022/03/23 00:08:46;;;;;;;196.25;117.03;;;179.60;2124.80;;;;;;4901180;29;20020;-81
2022/03/23 00:11:12;;;;;;;138.57;81.68;;;179.20;2124.80;;;;;;4901923;29;20048;-77
2022/03/23 00:13:38;;;;;;;109.03;65.57;;;179.50;2124.80;;;;;;4885510;29;20051;-79
2022/03/23 00:16:04;;;;;;;133.63;77.05;;;179.30;2124.80;;;;;;4885043;29;20463;-77
2022/03/23 00:18:30;;;;;;;124.90;72.95;;;179.30;2124.80;;;;;;4905088;29;20024;-76
2022/03/23 00:20:56;;;;;;;147.05;85.07;;;179.40;2124.80;;;;;;4906081;29;20523;-80
2022/03/23 00:23:22;;;;;;;131.32;74.05;;;179.30;2124.80;;;;;;4886055;29;20045;-75
2022/03/23 00:25:48;;;;;;;79.55;48.17;;;179.30;2124.80;;;;;;4884715;29;20024;-81
2022/03/23 00:28:14;;;;;;;59.17;35.75;;;179.40;2099.20;;;;;;4884157;29;20060;-80
2022/03/23 00:30:40;;;;;;;59.63;33.10;;;179.60;2073.60;;;;;;4884043;29;20052;-74
2022/03/23 00:33:06;;;;;;;52.95;29.92;;;179.50;2073.60;;;;;;4883330;29;20044;-78
2022/03/23 00:35:32;;;;;;;53.85;30.92;;;179.40;2073.60;;;;;;4883721;29;20021;-78
2022/03/23 00:37:59;;;;;;;57.30;35.35;;;179.50;2073.60;;;;;;4884186;29;20028;-79
2022/03/23 00:40:28;;;;;;;61.05;34.53;;;179.60;2073.60;;;;;;4884373;29;20103;-77
2022/03/23 00:43:01;;;;;;;74.07;44.75;;;179.70;2073.60;;;;;;4883923;29;20119;-77
2022/03/23 00:45:27;;;;;;;;;;;179.70;2073.60;;;;;;4884588;29;20115;-79
2022/03/23 00:47:53;;;;;;;89.88;48.88;;;179.70;2073.60;;;;;;4884091;29;19907;-76
2022/03/23 00:50:19;;;;;;;88.60;47.35;;;179.40;2099.20;;;;;;4900794;29;20036;-79
2022/03/23 00:52:46;;;;;;;112.53;61.35;;;179.40;2099.20;;;;;;4884197;29;20048;-79
2022/03/23 00:55:11;;;;;;;121.45;63.83;;;179.40;2124.80;;;;;;4884078;29;20145;-82
2022/03/23 00:57:38;;;;;;;106.18;59.78;;;179.20;2124.80;;;;;;4883857;29;20180;-79
2022/03/23 01:00:06;;;;;;;106.78;64.15;;;154.50;2150.40;;;;;;4900740;29;20471;-78
2022/03/23 01:02:34;;;;;;;112.15;64.90;;;154.50;2150.40;;;;;;4884002;29;20024;-79
2022/03/23 01:05:01;;;;;;;105.07;61.22;;;154.50;2150.40;;;;;;4883640;29;20029;-78
2022/03/23 01:07:27;;;;;;;100.25;58.75;;;154.50;2150.40;;;;;;4883891;29;20024;-76
2022/03/23 01:09:52;;;;;;;102.45;58.38;;;154.50;2150.40;;;;;;4883356;29;20020;-78
2022/03/23 01:12:18;;;;;;;124.97;68.55;;;154.50;2150.40;;;;;;4883304;29;20028;-77
2022/03/23 01:14:44;;;;;;;108.72;61.08;;;154.40;2150.40;;;;;;4883627;29;20028;-78
2022/03/23 01:17:10;;;;;;;102.85;57.88;;;154.40;2150.40;;;;;;4900656;29;20039;-78
2022/03/23 01:19:35;;;;;;;108.82;60.33;;;154.30;2150.40;;;;;;4883835;29;20024;-77
2022/03/23 01:22:01;;;;;;;96.93;55.15;;;154.20;2150.40;;;;;;4883423;29;20475;-78
2022/03/23 01:24:27;;;;;;;99.78;54.97;;;154.30;2176.00;;;;;;4883541;29;20395;-77
2022/03/23 01:26:53;;;;;;;107.90;61.22;;;154.10;2176.00;;;;;;4883440;29;20029;-78
2022/03/23 01:29:19;;;;;;;125.70;70.25;;;154.10;2176.00;;;;;;4883558;29;20036;-76
2022/03/23 01:31:46;;;;;;;104.38;59.63;;;154.10;2176.00;;;;;;4882903;29;20040;-78
2022/03/23 01:34:12;;;;;;;72.55;42.70;;;154.00;2176.00;;;;;;4883215;29;20052;-78
2022/03/23 01:36:38;;;;;;;80.40;42.15;;;154.10;2176.00;;;;;;4883276;29;20025;-79
2022/03/23 01:39:04;;;;;;;85.20;50.92;;;153.80;2176.00;;;;;;4882877;29;20051;-74
2022/03/23 01:41:33;;;;;;;109.65;59.70;;;153.70;2201.60;;;;;;4882950;29;20028;-77
2022/03/23 01:43:59;;;;;;;135.60;74.90;;;153.80;2201.60;;;;;;4883118;29;20029;-79
2022/03/23 01:46:26;;;;;;;150.07;81.57;;;128.30;2227.20;;;;;;4882567;29;20049;-76
2022/03/23 01:48:52;;;;;;;166.63;89.25;;;153.90;2201.60;;;;;;4882985;29;20080;-79
2022/03/23 01:51:17;;;;;;;112.20;57.63;;;153.90;2201.60;;;;;;4883003;29;20451;-77
2022/03/23 01:53:43;;;;;;;73.28;38.25;;;153.90;2201.60;;;;;;4882583;29;20031;-79
2022/03/23 01:56:14;;;;;;;56.55;30.13;;;153.90;2201.60;;;;;;4882912;29;20451;-78
2022/03/23 01:58:40;;;;;;;62.10;31.27;;;153.90;2201.60;;;;;;4882967;29;20032;-80
2022/03/23 02:01:06;;;;;;;71.80;30.08;;;153.70;2201.60;;;;;;4882597;29;20091;-79
2022/03/23 02:03:32;;;;;;;48.75;26.48;;;128.90;2201.60;;;;;;4899719;29;20451;-76
2022/03/23 02:05:58;;;;;;;64.82;27.17;;;128.90;2227.20;;;;;;4898249;29;20103;-74
2022/03/23 02:08:24;;;;;;;46.85;24.77;;;153.60;2201.60;;;;;;4898778;29;20057;-78
2022/03/23 02:10:51;;;;;;;51.13;22.25;;;128.90;2201.60;;;;;;4883473;29;20033;-79
2022/03/23 02:13:16;;;;;;;44.15;23.33;;;128.80;2227.20;;;;;;4882577;29;20024;-79
2022/03/23 02:15:42;;;;;;;42.90;20.58;;;128.60;2227.20;;;;;;4882488;29;20035;-77
2022/03/23 02:18:08;;;;;;;35.35;19.45;;;128.40;2252.80;;;;;;4882486;29;20061;-77
2022/03/23 02:20:34;;;;;;;43.50;21.15;;;128.50;2252.80;;;;;;4882170;29;20067;-77
2022/03/23 02:23:00;;;;;;;45.72;21.95;;;128.50;2252.80;;;;;;4882392;29;20056;-81
2022/03/23 02:25:28;;;;;;;44.88;22.88;;;128.20;2252.80;;;;;;4899618;29;20091;-78
2022/03/23 02:27:55;;;;;;;74.05;34.83;;;128.20;2252.80;;;;;;4882443;29;20062;-80
2022/03/23 02:30:21;;;;;;;48.95;27.48;;;128.30;2252.80;;;;;;4882505;29;20087;-78
2022/03/23 02:32:48;;;;;;;46.03;27.45;;;128.20;2252.80;;;;;;4899246;29;20053;-80
2022/03/23 02:35:15;;;;;;;51.05;27.88;;;128.10;2252.80;;;;;;4882228;29;20462;-79
2022/03/23 02:37:41;;;;;;;54.75;24.15;;;128.20;2252.80;;;;;;4882408;29;20025;-79
2022/03/23 02:40:09;;;;;;;71.43;33.72;;;128.30;2252.80;;;;;;4882138;29;20028;-79
2022/03/23 02:42:39;;;;;;;53.90;26.23;;;128.20;2252.80;;;;;;4881863;29;20025;-79
2022/03/23 02:45:06;;;;;;;52.08;26.60;;;128.20;2252.80;;;;;;4898975;29;20036;-78
2022/03/23 02:47:32;;;;;;;55.75;29.23;;;128.30;2252.80;;;;;;4898896;29;20344;-76
2022/03/23 02:49:58;;;;;;;59.85;31.60;;;128.30;2252.80;;;;;;4881729;29;20020;-79
2022/03/23 02:52:24;;;;;;;64.47;30.77;;;128.40;2252.80;;;;;;4898477;29;20035;-75
2022/03/23 03:03:34;;;;;;;79.80;45.55;;;128.40;2252.80;;;;;;4898246;29;20024;-78
2022/03/23 03:06:03;;;;;;;69.32;37.67;;;128.60;2252.80;;;;;;4881531;29;20028;-76
2022/03/23 03:08:45;;;;;;;82.15;40.25;;;128.50;2252.80;;;;;;4881764;29;20029;-77
2022/03/23 03:11:10;;;;;;;58.88;34.78;;;128.20;2252.80;;;;;;4881748;29;20423;-75
2022/03/23 03:13:37;;;;;;;59.78;31.13;;;128.10;2252.80;;;;;;4881909;29;20020;-76
2022/03/23 03:16:04;;;;;;;67.82;33.03;;;128.20;2252.80;;;;;;4881617;29;20064;-80
2022/03/23 03:18:34;;;;;;;51.90;30.50;;;128.30;2252.80;;;;;;4881925;29;20036;-78
2022/03/23 03:21:04;;;;;;;59.05;30.83;;;128.00;2252.80;;;;;;4881916;29;20028;-77
2022/03/23 03:23:30;;;;;;;56.08;32.35;;;103.30;2227.20;;;;;;4898413;29;20060;-78
2022/03/23 03:25:57;;;;;;;64.25;36.80;;;103.20;2227.20;;;;;;4881739;29;20447;-77
2022/03/23 03:28:23;;;;;;;72.07;38.35;;;103.10;2227.20;;;;;;4898527;29;20029;-79
2022/03/23 03:30:49;;;;;;;63.30;31.50;;;103.20;2227.20;;;;;;4883245;29;20051;-78
2022/03/23 03:33:15;;;;;;;53.65;32.35;;;103.10;2227.20;;;;;;4884944;29;20076;-76
2022/03/23 03:35:41;;;;;;;48.78;25.92;;;103.10;2227.20;;;;;;4902164;29;20028;-76
2022/03/23 03:38:07;;;;;;;58.70;29.67;;;103.00;2227.20;;;;;;4881735;29;20037;-79
2022/03/23 03:40:33;;;;;;;61.60;33.85;;;103.00;2227.20;;;;;;4881422;29;20232;-81
2022/03/23 03:42:59;;;;;;;56.97;31.25;;;102.90;2227.20;;;;;;4881595;29;20033;-79
2022/03/23 03:45:24;;;;;;;51.42;29.45;;;102.90;2227.20;;;;;;4897800;29;20152;-81
2022/03/23 03:47:50;;;;;;;51.80;27.92;;;102.70;2227.20;;;;;;4881627;29;20029;-78
2022/03/23 03:50:16;;;;;;;79.05;36.92;;;102.70;2227.20;;;;;;4898320;29;20028;-80
2022/03/23 03:52:42;;;;;;;106.18;52.40;;;102.60;2227.20;;;;;;4881201;29;20024;-82
2022/03/23 03:55:08;;;;;;;110.30;54.42;;;102.70;2227.20;;;;;;4881416;29;20027;-78
2022/03/23 03:57:34;;;;;;;94.43;46.13;;;102.60;2227.20;;;;;;4881573;29;20375;-83
2022/03/23 04:00:00;;;;;;;83.85;44.42;;;102.70;2227.20;;;;;;4881068;29;20032;-80
2022/03/23 04:02:25;;;;;;;65.00;34.30;;;102.70;2227.20;;;;;;4881488;29;20032;-82
2022/03/23 04:04:51;;;;;;;67.57;36.38;;;102.80;2227.20;;;;;;4881093;29;20447;-79
2022/03/23 04:07:17;;;;;;;70.85;36.88;;;102.80;2227.20;;;;;;4897932;29;20025;-81
2022/03/23 04:09:43;;;;;;;65.40;36.05;;;102.80;2227.20;;;;;;4884889;29;20032;-78
2022/03/23 04:12:09;;;;;;;65.40;34.83;;;102.70;2227.20;;;;;;4884272;29;20064;-80
2022/03/23 04:14:35;;;;;;;59.00;33.35;;;102.60;2227.20;;;;;;4884973;29;20056;-78
2022/03/23 04:17:00;;;;;;;58.03;30.50;;;102.50;2227.20;;;;;;4884845;29;20055;-77
2022/03/23 04:19:26;;;;;;;68.22;33.95;;;102.50;2227.20;;;;;;4884522;29;20033;-79
2022/03/23 04:21:52;;;;;;;53.17;27.27;;;102.50;2227.20;;;;;;4884320;29;20048;-77
2022/03/23 04:24:18;;;;;;;55.55;29.98;;;102.40;2227.20;;;;;;4884652;29;20028;-79
2022/03/23 04:26:46;;;;;;;59.10;31.17;;;77.70;2227.20;;;;;;4884159;29;20064;-79
2022/03/23 04:29:12;;;;;;;46.30;27.88;;;77.70;2227.20;;;;;;4884480;29;20020;-78
2022/03/23 04:31:38;;;;;;;58.78;34.20;;;102.40;2227.20;;;;;;4901036;29;20079;-79
2022/03/23 04:34:04;;;;;;;83.65;44.78;;;77.60;2227.20;;;;;;4883857;29;20051;-82
2022/03/23 04:36:30;;;;;;;64.10;31.92;;;102.40;2227.20;;;;;;4884348;29;20077;-80
2022/03/23 04:38:56;;;;;;;55.60;31.80;;;77.50;2227.20;;;;;;4884049;29;20029;-77
2022/03/23 04:41:21;;;;;;;63.53;36.78;;;77.50;2227.20;;;;;;4884128;29;20024;-83
2022/03/23 04:43:47;;;;;;;69.63;38.08;;;77.60;2227.20;;;;;;4884444;29;20459;-78
2022/03/23 04:46:14;;;;;;;60.65;38.17;;;77.40;2227.20;;;;;;4884298;29;20398;-78
2022/03/23 04:48:39;;;;;;;66.22;41.58;;;77.40;2227.20;;;;;;4884021;29;20021;-79
2022/03/23 04:51:05;;;;;;;63.78;39.45;;;77.40;2227.20;;;;;;4883823;29;20025;-79
2022/03/23 04:53:31;;;;;;;62.63;36.38;;;77.30;2227.20;;;;;;4900900;29;20051;-80
2022/03/23 04:55:57;;;;;;;62.22;38.53;;;77.30;2227.20;;;;;;4900186;29;20077;-80
2022/03/23 04:58:24;;;;;;;88.32;55.05;;;77.30;2227.20;;;;;;4883896;29;20024;-81
2022/03/23 05:00:50;;;;;;;77.78;48.05;;;77.20;2227.20;;;;;;4883608;29;20024;-81
2022/03/23 05:03:16;;;;;;;85.70;45.47;;;77.30;2227.20;;;;;;4900977;29;20064;-79
2022/03/23 05:05:43;;;;;;;58.38;34.83;;;77.50;2227.20;;;;;;4883743;29;20430;-81
2022/03/23 05:08:09;;;;;;;53.67;32.53;;;77.50;2227.20;;;;;;4883648;29;20036;-78
2022/03/23 05:10:35;;;;;;;52.88;31.92;;;77.30;2227.20;;;;;;4883678;29;20025;-78
2022/03/23 05:13:01;;;;;;;61.85;38.00;;;77.30;2227.20;;;;;;4883571;29;20021;-78
2022/03/23 05:15:27;;;;;;;65.03;39.20;;;77.30;2227.20;;;;;;4900211;29;20032;-81
2022/03/23 05:17:52;;;;;;;68.85;36.60;;;77.50;2227.20;;;;;;4900434;29;20470;-80
2022/03/23 05:20:19;;;;;;;69.82;41.03;;;77.50;2227.20;;;;;;4883216;29;20036;-79
2022/03/23 05:22:45;;;;;;;74.72;42.03;;;77.60;2227.20;;;;;;4883126;29;20052;-81
2022/03/23 05:25:12;;;;;;;85.55;49.30;;;77.50;2227.20;;;;;;4891544;29;20120;-75
2022/03/23 05:27:40;;;;;;;94.90;53.58;;;77.70;2227.20;;;;;;4889332;29;20036;-80
2022/03/23 05:30:09;;;;;;;101.38;56.17;;;77.60;2227.20;;;;;;4883763;29;20029;-80
2022/03/23 05:32:35;;;;;;;112.78;63.63;;;102.40;2227.20;;;;;;4883210;29;20119;-77
2022/03/23 05:35:01;;;;;;;121.22;68.22;;;102.50;2227.20;;;;;;4883481;29;20028;-79
2022/03/23 05:37:27;;;;;;;146.18;81.40;;;102.60;2227.20;;;;;;4882935;29;20486;-82
2022/03/23 05:39:53;;;;;;;150.73;80.57;;;102.50;2227.20;;;;;;4883331;29;20032;-77
2022/03/23 05:42:19;;;;;;;119.15;66.15;;;102.70;2227.20;;;;;;4899934;29;20045;-79
2022/03/23 05:44:45;;;;;;;104.30;58.10;;;102.90;2227.20;;;;;;4882867;29;20032;-79
2022/03/23 05:47:11;;;;;;;91.85;50.25;;;102.80;2227.20;;;;;;4883287;29;20035;-79
2022/03/23 05:49:37;;;;;;;65.10;35.25;;;102.90;2227.20;;;;;;4883291;29;20530;-80
2022/03/23 05:52:04;;;;;;;62.88;34.35;;;102.60;2227.20;;;;;;4882931;29;20461;-78
2022/03/23 05:54:31;;;;;;;69.40;40.55;;;102.80;2227.20;;;;;;4883006;29;20116;-79
2022/03/23 05:56:57;;;;;;;116.25;74.15;;;102.60;2227.20;;;;;;4882749;29;20056;-76
2022/03/23 05:59:23;;;;;;;105.47;61.05;;;102.50;2227.20;;;;;;4882948;29;20029;-80
2022/03/23 06:01:49;;;;;;;182.63;115.80;;;102.60;2227.20;;;;;;4882489;29;20512;-78
2022/03/23 06:04:15;;;;;;;132.93;83.88;;;102.60;2227.20;;;;;;4882605;29;20046;-80
2022/03/23 06:06:41;;;;;;;86.03;51.10;;;102.60;2227.20;;;;;;4882779;29;20028;-84
2022/03/23 06:09:07;;;;;;;79.97;51.60;;;102.80;2227.20;;;;;;4899624;29;20024;-79
2022/03/23 06:11:33;;;;;;;80.97;49.13;;;102.70;2227.20;;;;;;4882363;29;20120;-78
2022/03/23 06:13:58;;;;;;;57.08;35.72;;;102.80;2227.20;;;;;;4882961;29;20112;-78
2022/03/23 06:16:24;;;;;;;54.35;32.30;;;102.90;2227.20;;;;;;4899748;29;20075;-80
2022/03/23 06:18:50;;;;;;;53.67;26.52;;;103.00;2227.20;;;;;;4883130;29;20028;-79
2022/03/23 06:21:16;;;;;;;46.28;27.00;;;103.00;2227.20;;;;;;4882364;29;20033;-78
2022/03/23 06:23:42;;;;;;;52.13;30.83;;;103.30;2227.20;;;;;;4882848;29;20024;-78
2022/03/23 06:26:08;;;;;;;50.67;29.83;;;128.00;2252.80;;;;;;4882484;29;20025;-79
2022/03/23 06:28:34;;;;;;;52.03;30.13;;;128.30;2252.80;;;;;;4882437;29;20379;-77
2022/03/23 06:31:00;;;;;;;61.63;32.75;;;128.40;2252.80;;;;;;4882054;29;20040;-77
2022/03/23 06:33:26;;;;;;;56.30;33.17;;;128.60;2252.80;;;;;;4882358;29;20043;-77
2022/03/23 06:35:52;;;;;;;69.63;36.13;;;128.40;2252.80;;;;;;4882454;29;20025;-77
2022/03/23 06:38:18;;;;;;;75.82;40.25;;;128.80;2252.80;;;;;;4882260;29;20115;-77
2022/03/23 06:40:44;;;;;;;69.00;39.03;;;128.90;2252.80;;;;;;4881796;29;20407;-74
2022/03/23 06:43:10;;;;;;;55.08;33.67;;;153.70;2252.80;;;;;;4882199;29;20463;-78
2022/03/23 06:45:40;;;;;;;58.08;34.88;;;153.80;2252.80;;;;;;4883942;29;20119;-78
2022/03/23 06:48:06;;;;;;;73.60;40.40;;;153.90;2252.80;;;;;;4901703;29;20048;-78
2022/03/23 06:50:32;;;;;;;65.88;39.72;;;154.00;2252.80;;;;;;4900546;29;20074;-78
2022/03/23 06:52:58;;;;;;;71.22;42.78;;;154.00;2252.80;;;;;;4881995;29;20021;-81
2022/03/23 06:55:24;;;;;;;76.95;43.30;;;154.10;2252.80;;;;;;4881943;29;20035;-80
2022/03/23 06:57:49;;;;;;;62.80;36.50;;;154.30;2252.80;;;;;;4881775;29;20467;-79
2022/03/23 07:00:16;;;;;;;59.85;34.30;;;154.50;2252.80;;;;;;4881687;29;20043;-79
2022/03/23 07:02:49;;;;;;;45.78;27.05;;;179.20;2252.80;;;;;;4898630;29;20024;-77
2022/03/23 07:05:18;;;;;;;53.58;28.15;;;179.20;2252.80;;;;;;4881974;29;20033;-75
2022/03/23 07:10:30;;;;;;;38.65;22.77;;;179.40;2252.80;;;;;;4898842;29;20132;-79
2022/03/23 07:12:57;;;;;;;43.90;25.40;;;179.60;2252.80;;;;;;4881930;29;20024;-78
2022/03/23 07:15:23;;;;;;;45.78;24.10;;;179.80;2252.80;;;;;;4881558;29;20112;-80
2022/03/23 07:17:50;;;;;;;44.67;24.80;;;179.90;2252.80;;;;;;4881825;29;20061;-80
2022/03/23 07:20:15;;;;;;;46.30;27.42;;;205.00;2252.80;;;;;;4898411;29;20462;-76
2022/03/23 07:22:41;;;;;;;38.03;21.58;;;180.10;2252.80;;;;;;4881167;29;20072;-77
2022/03/23 07:25:07;;;;;;;39.53;21.63;;;204.90;2252.80;;;;;;4881780;29;20028;-77
2022/03/23 07:27:33;;;;;;;34.20;21.77;;;205.00;2252.80;;;;;;4881720;29;20053;-77
2022/03/23 07:29:59;;;;;;;46.00;27.23;;;205.10;2252.80;;;;;;4881459;29;20036;-78
2022/03/23 07:32:25;;;;;;;47.47;24.73;;;205.20;2252.80;;;;;;4881947;29;20073;-80
2022/03/23 07:34:51;;;;;;;27.83;14.50;;;205.40;2252.80;;;;;;4881423;29;20025;-77
2022/03/23 07:37:17;;;;;;;29.13;14.82;;;205.50;2252.80;;;;;;4898497;29;20067;-79
2022/03/23 07:39:43;;;;;;;24.85;15.25;;;205.60;2227.20;;;;;;4881594;29;20064;-78
2022/03/23 07:42:10;;;;;;;26.70;14.60;;;230.40;2176.00;;;;;;4882343;29;20033;-78
2022/03/23 07:44:36;;;;;;;29.73;13.40;;;230.50;2150.40;;;;;;4901830;29;20028;-77
2022/03/23 07:47:07;;;;;;;23.02;11.73;;;230.70;2099.20;;;;;;4901824;29;20025;-75
2022/03/23 07:49:33;;;;;;;38.05;17.33;;;230.80;2073.60;;;;;;4885060;29;20031;-79
2022/03/23 07:52:02;;;;;;;30.55;13.65;;;230.90;2048.00;;;;;;4884855;29;20032;-78
2022/03/23 07:54:28;;;;;;;36.10;20.77;;;231.00;2022.40;;;;;;4885111;29;20047;-76
2022/03/23 07:56:54;;;;;;;35.08;19.80;;;231.10;2022.40;;;;;;4901729;29;20032;-78
2022/03/23 07:59:19;;;;;;;27.08;16.02;;;231.30;1996.80;;;;;;4885129;29;20024;-78
2022/03/23 08:01:45;;;;;;;25.45;13.77;;;256.00;1996.80;;;;;;4884879;29;20506;-77
2022/03/23 08:04:11;;;;;;;25.83;12.07;;;256.30;1945.60;;;;;;4884769;29;20072;-77
2022/03/23 08:06:37;;;;;;;39.75;15.63;;;256.50;1945.60;;;;;;4884846;29;20033;-77
2022/03/23 08:09:04;;;;;;;22.70;10.32;;;256.70;1945.60;;;;;;4901607;29;20031;-76
2022/03/23 08:11:30;;;;;;;27.25;9.68;;;256.80;1894.40;;;;;;4884588;29;20123;-76
2022/03/23 08:13:56;;;;;;;24.58;8.70;;;256.90;1868.80;;;;;;4884679;29;20374;-81
2022/03/23 08:16:23;;;;;;;27.30;10.10;;;256.90;1868.80;;;;;;4884550;29;20367;-76
2022/03/23 08:18:49;;;;;;;17.92;10.55;;;281.70;1868.80;;;;;;4884297;29;20025;-77
2022/03/23 08:21:17;;;;;;;14.68;7.72;;;281.80;1868.80;;;;;;4884421;29;20032;-78
2022/03/23 08:23:43;;;;;;;21.30;7.82;;;281.90;1843.20;;;;;;4901554;29;20028;-76
2022/03/23 08:26:13;;;;;;;19.48;8.88;;;282.00;1843.20;;;;;;4901171;29;20036;-78
2022/03/23 08:28:40;;;;;;;21.17;8.48;;;282.10;1843.20;;;;;;4884597;29;20072;-75
2022/03/23 08:31:06;;;;;;;19.20;7.72;;;282.20;1817.60;;;;;;4884739;29;20103;-78
2022/03/23 08:33:34;;;;;;;21.20;8.35;;;282.20;1817.60;;;;;;4901796;29;20027;-75
2022/03/23 08:36:02;;;;;;;22.10;7.55;;;282.30;1817.60;;;;;;4901372;29;20029;-76
2022/03/23 08:38:28;;;;;;;17.95;6.32;;;282.40;1817.60;;;;;;4884470;29;20448;-78
2022/03/23 08:40:54;;;;;;;25.52;8.25;;;282.50;1817.60;;;;;;4884820;29;20036;-76
2022/03/23 08:43:20;;;;;;;18.83;7.05;;;282.50;1792.00;;;;;;4886060;29;20028;-75
2022/03/23 08:45:47;;;;;;;15.60;7.78;;;307.40;1766.40;;;;;;4906390;29;20017;-77
2022/03/23 08:48:13;;;;;;;17.20;8.07;;;307.60;1766.40;;;;;;4905622;29;20085;-80
2022/03/23 08:50:40;;;;;;;25.08;14.20;;;307.70;1740.80;;;;;;4886573;29;20036;-80
2022/03/23 08:53:07;;;;;;;23.15;10.85;;;307.90;1740.80;;;;;;4884278;29;20032;-77
2022/03/23 08:55:33;;;;;;;18.38;11.68;;;307.80;1740.80;;;;;;4883867;29;20077;-80
2022/03/23 08:57:59;;;;;;;22.60;9.15;;;307.80;1715.20;;;;;;4900933;29;20171;-77
2022/03/23 09:00:26;;;;;;;22.55;8.45;;;308.00;1715.20;;;;;;4883652;29;20025;-77
2022/03/23 09:02:52;;;;;;;19.10;8.70;;;308.10;1715.20;;;;;;4884098;29;20378;-77
2022/03/23 09:05:19;;;;;;;21.38;9.27;;;332.80;1715.20;;;;;;4883805;29;20032;-77
2022/03/23 09:07:45;;;;;;;18.63;9.52;;;332.90;1715.20;;;;;;4883524;29;20020;-82
2022/03/23 09:10:13;;;;;;;19.55;9.52;;;332.90;1715.20;;;;;;4900826;29;20031;-77
2022/03/23 09:12:40;;;;;;;26.40;10.35;;;332.90;1689.60;;;;;;4883724;29;20029;-78
2022/03/23 09:15:08;;;;;;;17.77;10.50;;;333.00;1715.20;;;;;;4900425;29;20463;-79
2022/03/23 09:17:34;;;;;;;19.42;10.63;;;333.10;1689.60;;;;;;4883570;29;20084;-78
2022/03/23 09:20:01;;;;;;;18.75;9.70;;;333.10;1689.60;;;;;;4883355;29;20076;-79
2022/03/23 09:22:36;;;;;;;20.65;11.65;;;333.20;1689.60;;;;;;4882972;29;20052;-79
2022/03/23 09:25:08;;;;;;;12.32;6.60;;;333.30;1689.60;;;;;;4883765;29;20054;-78
2022/03/23 09:27:35;;;;;;;19.83;7.37;;;333.20;1664.00;;;;;;4883203;29;20036;-77
2022/03/23 09:30:03;;;;;;;18.40;9.02;;;333.30;1664.00;;;;;;4883515;29;20084;-77
2022/03/23 09:32:29;;;;;;;17.60;6.07;;;333.40;1664.00;;;;;;4883244;29;20460;-80
2022/03/23 09:34:55;;;;;;;17.70;8.00;;;333.20;1664.00;;;;;;4883087;29;20024;-80
2022/03/23 09:40:06;;;;;;;13.65;5.75;;;333.50;1638.40;;;;;;4899971;29;20092;-76
2022/03/23 09:42:32;;;;;;;26.67;12.23;;;333.70;1638.40;;;;;;4882781;29;20040;-77
2022/03/23 09:44:59;;;;;;;15.00;7.72;;;333.70;1612.80;;;;;;4899899;29;20024;-77
2022/03/23 09:47:24;;;;;;;17.13;7.25;;;358.50;1612.80;;;;;;4882892;29;20064;-80
2022/03/23 09:49:50;;;;;;;15.63;5.65;;;358.50;1587.20;;;;;;4882812;29;20067;-77
2022/03/23 09:52:35;;;;;;;19.42;7.63;;;358.50;1587.20;;;;;;4882849;29;20029;-79
2022/03/23 09:55:01;;;;;;;17.40;7.63;;;358.60;1587.20;;;;;;4882796;29;20032;-76
2022/03/23 09:57:27;;;;;;;17.15;8.68;;;358.80;1561.60;;;;;;4883144;29;20530;-76
2022/03/23 09:59:53;;;;;;;18.75;6.85;;;358.80;1587.20;;;;;;4883244;29;20029;-75
2022/03/23 10:02:57;;;;;;;21.55;9.25;;;358.90;1561.60;;;;;;4884365;29;20036;-77
2022/03/23 10:05:32;;;;;;;25.10;11.48;;;358.80;1561.60;;;;;;4871235;29;20033;-73
2022/03/23 10:08:20;;;;;;;24.52;9.93;;;359.00;1561.60;;;;;;4899969;29;20044;-76
2022/03/23 10:11:23;;;;;;;22.70;9.73;;;359.00;1536.00;;;;;;4881824;29;20028;-76
2022/03/23 10:14:07;;;;;;;14.75;7.25;;;359.20;1536.00;;;;;;4897988;29;20028;-75
2022/03/23 10:16:43;;;;;;;16.85;7.82;;;359.20;1536.00;;;;;;4897223;29;20076;-75
2022/03/23 10:19:09;;;;;;;21.15;9.45;;;384.00;1510.40;;;;;;4870283;29;20036;-76
2022/03/23 10:21:37;;;;;;;17.73;8.88;;;384.20;1484.80;;;;;;4881855;29;20037;-74
2022/03/23 10:24:03;;;;;;;18.92;6.80;;;384.30;1510.40;;;;;;4881946;29;20027;-74
2022/03/23 10:26:31;;;;;;;19.75;8.05;;;384.50;1484.80;;;;;;4898934;29;20021;-79
2022/03/23 10:28:58;;;;;;;15.63;7.63;;;384.60;1459.20;;;;;;4882450;29;20032;-77
2022/03/23 10:31:26;;;;;;;16.27;6.70;;;384.60;1459.20;;;;;;4881932;29;20084;-73
2022/03/23 10:33:57;;;;;;;18.30;9.85;;;384.70;1459.20;;;;;;4882362;29;20431;-75
2022/03/23 10:36:27;;;;;;;15.87;7.87;;;384.70;1459.20;;;;;;4882138;29;20024;-76
2022/03/23 10:39:05;;;;;;;15.10;8.43;;;384.90;1459.20;;;;;;4881867;29;20035;-75
2022/03/23 10:41:33;;;;;;;24.52;8.52;;;409.60;1484.80;;;;;;4881924;29;20123;-78
2022/03/23 10:43:59;;;;;;;20.67;9.93;;;409.70;1459.20;;;;;;4882011;29;20371;-77
2022/03/23 10:46:25;;;;;;;15.30;7.55;;;409.90;1484.80;;;;;;4882142;29;20051;-81
2022/03/23 10:49:01;;;;;;;18.58;8.68;;;410.00;1433.60;;;;;;4882172;29;20459;-78
2022/03/23 10:51:32;;;;;;;25.95;13.70;;;410.30;1433.60;;;;;;4881718;29;20028;-79
2022/03/23 10:53:59;;;;;;;38.95;23.33;;;435.30;1408.00;;;;;;4882005;29;20035;-75
2022/03/23 10:56:30;;;;;;;34.28;18.55;;;435.50;1382.40;;;;;;4898878;29;20477;-78
2022/03/23 10:59:22;;;;;;;23.73;13.23;;;435.60;1356.80;;;;;;4898245;29;20024;-78
2022/03/23 11:02:08;;;;;;;19.92;8.90;;;435.80;1356.80;;;;;;4898705;29;20741;-77
2022/03/23 11:04:43;;;;;;;16.40;7.13;;;436.00;1331.20;;;;;;4881898;29;20044;-76
2022/03/23 11:07:23;;;;;;;23.83;11.98;;;460.80;1331.20;;;;;;4881779;29;20025;-78
2022/03/23 11:18:12;;;;;;;25.10;8.65;;;461.30;1280.00;;;;;;4901439;29;20539;-76
2022/03/23 11:20:42;;;;;;;24.52;8.73;;;461.40;1254.40;;;;;;4885226;29;20043;-76
2022/03/23 11:23:31;;;;;;;17.80;10.43;;;461.50;1254.40;;;;;;4885518;29;20052;-78
2022/03/23 11:26:02;;;;;;;19.98;9.40;;;461.70;1228.80;;;;;;4885297;29;20367;-77
2022/03/23 11:28:31;;;;;;;14.90;7.93;;;486.50;1228.80;;;;;;4885552;29;20044;-76
2022/03/23 11:30:58;;;;;;;16.85;6.65;;;486.70;1203.20;;;;;;4885494;29;20459;-77
2022/03/23 11:33:26;;;;;;;13.70;8.23;;;486.90;1203.20;;;;;;4885153;29;20037;-78
2022/03/23 11:35:53;;;;;;;14.48;6.72;;;486.90;1203.20;;;;;;4902109;29;20076;-75
2022/03/23 11:38:26;;;;;;;16.27;7.25;;;487.10;1177.60;;;;;;4885226;29;20084;-77
2022/03/23 11:40:56;;;;;;;28.38;6.50;;;512.00;1152.00;;;;;;4884924;29;20470;-75
2022/03/23 11:43:24;;;;;;;20.10;6.80;;;512.20;1126.40;;;;;;4884946;29;20072;-76
2022/03/23 11:45:52;;;;;;;15.55;7.88;;;512.40;1152.00;;;;;;4901817;29;20017;-76
2022/03/23 11:52:36;;;;;;;28.73;14.93;;;512.90;1126.40;;;;;;4901476;29;20067;-75
2022/03/23 11:58:18;;;;;;;15.60;7.60;;;512.90;1126.40;;;;;;4901856;29;20028;-76
2022/03/23 12:00:55;;;;;;;19.20;8.90;;;537.60;1126.40;;;;;;4884642;29;20064;-76
2022/03/23 12:03:40;;;;;;;16.40;8.80;;;537.90;1126.40;;;;;;4885101;29;20016;-76
2022/03/23 12:06:11;;;;;;;20.77;8.45;;;537.90;1100.80;;;;;;4884936;29;20024;-75
2022/03/23 12:08:46;;;;;;;15.38;7.07;;;538.00;1049.60;;;;;;4884593;29;20391;-76
2022/03/23 12:11:47;;;;;;;18.58;7.57;;;538.00;1075.20;;;;;;4900359;29;20455;-77
2022/03/23 12:14:29;;;;;;;17.15;8.50;;;538.20;1100.80;;;;;;4890868;29;20040;-75
2022/03/23 12:16:55;;;;;;;12.63;7.22;;;538.20;1075.20;;;;;;4908631;29;20016;-74
2022/03/23 12:19:26;;;;;;;13.27;6.55;;;538.20;1049.60;;;;;;4889936;29;20467;-77
2022/03/23 12:22:06;;;;;;;19.00;9.38;;;538.30;1049.60;;;;;;4884771;29;20072;-76
2022/03/23 12:24:56;;;;;;;16.10;8.48;;;538.50;1049.60;;;;;;4884399;29;20025;-78
2022/03/23 12:27:50;;;;;;;21.55;10.50;;;563.30;1075.20;;;;;;4899998;29;20025;-78
2022/03/23 12:30:30;;;;;;;18.83;8.07;;;563.50;1075.20;;;;;;4883795;29;20027;-79
2022/03/23 12:33:08;;;;;;;22.17;14.00;;;563.50;1100.80;;;;;;4884029;29;20044;-75
2022/03/23 12:35:35;;;;;;;19.48;10.70;;;563.50;1100.80;;;;;;4884207;29;20463;-77